Time,TemperatureF,DewpointF,PressureIn,WindDirection,WindDirectionDegrees,WindSpeedMPH,WindSpeedGustMPH,Humidity,HourlyPrecipIn,Conditions,Clouds,dailyrainin,SoftwareType,DateUTC
2013-06-18 00:02:00,70.1,68.0,29.96,NE,56,0.0,1.0,92,0.00,,,0.00,weatherlink.com 1.10,2013-06-18 05:02:00,
2013-06-18 00:17:00,70.3,68.0,29.96,NE,34,0.0,1.0,91,0.00,,,0.00,weatherlink.com 1.10,2013-06-18 05:17:00,
2013-06-18 00:32:00,69.9,68.0,29.95,NE,34,0.0,0.0,92,0.00,,,0.00,weatherlink.com 1.10,2013-06-18 05:32:00,
2013-06-18 00:48:00,69.6,68.0,29.95,NE,39,0.0,1.0,93,0.00,,,0.00,weatherlink.com 1.10,2013-06-18 05:48:00,
2013-06-18 01:03:00,70.0,68.0,29.95,NNE,31,0.0,3.0,93,0.00,,,0.00,weatherlink.com 1.10,2013-06-18 06:03:00,
2013-06-18 01:18:00,69.8,68.0,29.96,NNE,32,0.0,0.0,93,0.00,,,0.00,weatherlink.com 1.10,2013-06-18 06:18:00,
2013-06-18 01:33:00,69.6,68.0,29.95,NNE,31,0.0,0.0,93,0.00,,,0.00,weatherlink.com 1.10,2013-06-18 06:33:00,
2013-06-18 01:48:00,69.1,67.0,29.95,NNE,32,0.0,0.0,93,0.00,,,0.00,weatherlink.com 1.10,2013-06-18 06:48:00,
2013-06-18 02:03:00,68.7,67.0,29.95,NNE,31,0.0,0.0,94,0.00,,,0.00,weatherlink.com 1.10,2013-06-18 07:03:00,
2013-06-18 02:18:00,68.4,67.0,29.94,NNE,30,0.0,0.0,95,0.00,,,0.00,weatherlink.com 1.10,2013-06-18 07:18:00,
2013-06-18 02:33:00,68.8,67.0,29.95,NE,44,0.0,2.0,95,0.00,,,0.00,weatherlink.com 1.10,2013-06-18 07:33:00,
2013-06-18 02:48:00,69.2,68.0,29.95,NE,42,0.0,3.0,94,0.00,,,0.00,weatherlink.com 1.10,2013-06-18 07:48:00,
2013-06-18 03:03:00,69.1,67.0,29.93,NE,49,2.0,4.0,93,0.00,,,0.00,weatherlink.com 1.10,2013-06-18 08:03:00,
2013-06-18 03:18:00,68.8,67.0,29.94,NE,38,0.0,3.0,93,0.00,,,0.00,weatherlink.com 1.10,2013-06-18 08:18:00,
2013-06-18 03:33:00,68.7,67.0,29.95,NE,49,0.0,1.0,94,0.00,,,0.00,weatherlink.com 1.10,2013-06-18 08:33:00,
2013-06-18 03:48:00,68.4,67.0,29.94,NE,48,0.0,1.0,94,0.00,,,0.00,weatherlink.com 1.10,2013-06-18 08:48:00,
2013-06-18 04:03:00,68.3,67.0,29.94,NE,36,0.0,1.0,94,0.00,,,0.00,weatherlink.com 1.10,2013-06-18 09:03:00,
2013-06-18 04:18:00,68.1,67.0,29.93,NE,36,0.0,1.0,95,0.00,,,0.00,weatherlink.com 1.10,2013-06-18 09:18:00,
2013-06-18 04:33:00,67.9,67.0,29.93,NNE,12,0.0,0.0,95,0.00,,,0.00,weatherlink.com 1.10,2013-06-18 09:33:00,
2013-06-18 04:48:00,67.6,66.0,29.94,North,11,0.0,0.0,95,0.00,,,0.00,weatherlink.com 1.10,2013-06-18 09:48:00,
2013-06-18 05:03:00,67.5,66.0,29.96,SW,219,0.0,2.0,95,0.00,,,0.00,weatherlink.com 1.10,2013-06-18 10:03:00,
2013-06-18 05:18:00,67.5,66.0,29.95,SW,217,0.0,2.0,96,0.00,,,0.00,weatherlink.com 1.10,2013-06-18 10:18:00,
2013-06-18 05:33:00,67.5,66.0,29.94,SW,233,0.0,0.0,96,0.00,,,0.00,weatherlink.com 1.10,2013-06-18 10:33:00,
2013-06-18 05:48:00,67.3,66.0,29.95,SW,233,0.0,0.0,96,0.00,,,0.00,weatherlink.com 1.10,2013-06-18 10:48:00,
2013-06-18 06:03:00,67.3,66.0,29.97,SW,233,0.0,1.0,96,0.00,,,0.00,weatherlink.com 1.10,2013-06-18 11:03:00,
2013-06-18 06:18:00,67.4,66.0,29.98,SW,225,0.0,1.0,96,0.00,,,0.00,weatherlink.com 1.10,2013-06-18 11:18:00,
2013-06-18 06:33:00,66.7,67.0,29.99,SW,223,0.0,1.0,100,0.00,,,0.00,weatherlink.com 1.10,2013-06-18 11:33:00,
2013-06-18 06:48:00,-999.0,-99.9,29.99,North,-999,-999.0,-999.0,-999,0.00,,,0.00,weatherlink.com 1.10,2013-06-18 11:48:00,
2013-06-18 07:03:00,-999.0,-99.9,29.98,North,-999,-999.0,-999.0,-999,0.00,,,0.00,weatherlink.com 1.10,2013-06-18 12:03:00,
2013-06-18 07:18:00,-999.0,-99.9,29.98,North,-999,-999.0,-999.0,-999,0.00,,,0.00,weatherlink.com 1.10,2013-06-18 12:18:00,
2013-06-18 07:33:00,-999.0,-99.9,29.97,North,-999,-999.0,-999.0,-999,0.00,,,0.00,weatherlink.com 1.10,2013-06-18 12:33:00,
2013-06-18 07:48:00,68.5,67.0,29.98,NNW,345,0.0,1.0,96,0.00,,,0.00,weatherlink.com 1.10,2013-06-18 12:48:00,
2013-06-18 08:03:00,69.0,68.0,29.98,North,349,1.0,1.0,95,0.00,,,0.00,weatherlink.com 1.10,2013-06-18 13:03:00,
2013-06-18 08:18:00,69.6,68.0,29.99,NNW,336,2.0,4.0,95,0.00,,,0.00,weatherlink.com 1.10,2013-06-18 13:18:00,
2013-06-18 08:33:00,70.4,68.0,29.98,NNE,19,2.0,4.0,93,0.00,,,0.00,weatherlink.com 1.10,2013-06-18 13:33:00,
2013-06-18 08:48:00,70.7,68.0,29.98,North,349,3.0,5.0,91,0.00,,,0.00,weatherlink.com 1.10,2013-06-18 13:48:00,
2013-06-18 09:03:00,70.9,69.0,29.98,NNE,27,3.0,6.0,92,0.00,,,0.00,weatherlink.com 1.10,2013-06-18 14:03:00,
2013-06-18 09:18:00,72.0,69.0,29.98,NE,50,3.0,5.0,90,0.00,,,0.00,weatherlink.com 1.10,2013-06-18 14:18:00,
2013-06-18 09:33:00,73.6,69.0,29.98,NNE,22,3.0,10.0,84,0.00,,,0.00,weatherlink.com 1.10,2013-06-18 14:33:00,
2013-06-18 09:48:00,73.8,68.0,29.98,North,349,3.0,8.0,83,0.00,,,0.00,weatherlink.com 1.10,2013-06-18 14:48:00,
2013-06-18 10:03:00,75.6,69.0,29.98,NE,34,6.0,10.0,81,0.00,,,0.00,weatherlink.com 1.10,2013-06-18 15:03:00,
2013-06-18 10:18:00,76.0,69.0,29.98,NNE,19,10.0,12.0,79,0.00,,,0.00,weatherlink.com 1.10,2013-06-18 15:18:00,
2013-06-18 10:33:00,75.9,69.0,29.98,ENE,64,6.0,11.0,79,0.00,,,0.00,weatherlink.com 1.10,2013-06-18 15:33:00,
2013-06-18 10:48:00,76.8,70.0,29.99,NNE,12,7.0,11.0,79,0.00,,,0.00,weatherlink.com 1.10,2013-06-18 15:48:00,
2013-06-18 11:03:00,77.9,70.0,30.00,NE,46,4.0,6.0,76,0.00,,,0.00,weatherlink.com 1.10,2013-06-18 16:03:00,
2013-06-18 11:18:00,78.7,70.0,30.00,ENE,60,2.0,6.0,75,0.00,,,0.00,weatherlink.com 1.10,2013-06-18 16:18:00,
2013-06-18 11:33:00,79.7,71.0,30.00,SE,140,0.0,5.0,74,0.00,,,0.00,weatherlink.com 1.10,2013-06-18 16:33:00,
2013-06-18 11:48:00,79.0,70.0,30.00,SE,135,0.0,4.0,75,0.00,,,0.00,weatherlink.com 1.10,2013-06-18 16:48:00,
2013-06-18 12:03:00,79.6,71.0,30.00,SSE,167,0.0,6.0,74,0.00,,,0.00,weatherlink.com 1.10,2013-06-18 17:03:00,
2013-06-18 12:18:00,79.9,71.0,30.00,NE,43,1.0,6.0,73,0.00,,,0.00,weatherlink.com 1.10,2013-06-18 17:18:00,
2013-06-18 12:33:00,80.5,70.0,30.00,SE,124,1.0,6.0,71,0.00,,,0.00,weatherlink.com 1.10,2013-06-18 17:33:00,
2013-06-18 12:48:00,81.8,71.0,30.00,NE,36,1.0,6.0,69,0.00,,,0.00,weatherlink.com 1.10,2013-06-18 17:48:00,
2013-06-18 13:04:00,82.1,71.0,30.00,NNE,16,2.0,3.0,69,0.00,,,0.00,weatherlink.com 1.10,2013-06-18 18:04:00,
2013-06-18 13:19:00,81.6,70.0,30.00,NE,49,1.0,5.0,67,0.00,,,0.00,weatherlink.com 1.10,2013-06-18 18:19:00,
2013-06-18 13:34:00,81.3,70.0,30.00,North,8,6.0,12.0,68,0.00,,,0.00,weatherlink.com 1.10,2013-06-18 18:34:00,
2013-06-18 13:49:00,82.5,70.0,29.99,NE,51,5.0,8.0,66,0.00,,,0.00,weatherlink.com 1.10,2013-06-18 18:49:00,
2013-06-18 14:04:00,83.5,71.0,29.99,NE,48,3.0,6.0,65,0.00,,,0.00,weatherlink.com 1.10,2013-06-18 19:04:00,
2013-06-18 14:19:00,83.4,69.0,29.98,SSE,149,1.0,7.0,63,0.00,,,0.00,weatherlink.com 1.10,2013-06-18 19:19:00,
2013-06-18 14:34:00,83.8,69.0,29.98,ESE,108,3.0,5.0,61,0.00,,,0.00,weatherlink.com 1.10,2013-06-18 19:34:00,
2013-06-18 14:49:00,83.8,70.0,29.97,ENE,70,2.0,8.0,63,0.00,,,0.00,weatherlink.com 1.10,2013-06-18 19:49:00,
2013-06-18 15:04:00,84.5,69.0,29.95,NE,44,3.0,7.0,60,0.00,,,0.00,weatherlink.com 1.10,2013-06-18 20:04:00,
2013-06-18 15:19:00,85.2,70.0,29.96,NNE,23,6.0,6.0,61,0.00,,,0.00,weatherlink.com 1.10,2013-06-18 20:19:00,
2013-06-18 15:34:00,84.6,69.0,29.96,NE,45,4.0,7.0,59,0.00,,,0.00,weatherlink.com 1.10,2013-06-18 20:34:00,
2013-06-18 15:49:00,85.5,70.0,29.95,ENE,76,2.0,7.0,61,0.00,,,0.00,weatherlink.com 1.10,2013-06-18 20:49:00,
2013-06-18 16:04:00,85.5,69.0,29.95,NNE,26,6.0,6.0,59,0.00,,,0.00,weatherlink.com 1.10,2013-06-18 21:04:00,
2013-06-18 16:19:00,85.1,69.0,29.94,SSE,152,3.0,4.0,59,0.00,,,0.00,weatherlink.com 1.10,2013-06-18 21:19:00,
2013-06-18 16:34:00,86.1,69.0,29.94,ESE,117,0.0,5.0,56,0.00,,,0.00,weatherlink.com 1.10,2013-06-18 21:34:00,
2013-06-18 16:49:00,86.2,69.0,29.93,ESE,111,0.0,5.0,56,0.00,,,0.00,weatherlink.com 1.10,2013-06-18 21:49:00,
2013-06-18 17:04:00,86.0,68.0,29.93,NE,42,3.0,9.0,56,0.00,,,0.00,weatherlink.com 1.10,2013-06-18 22:04:00,
2013-06-18 17:19:00,85.5,66.0,29.93,NE,54,2.0,8.0,53,0.00,,,0.00,weatherlink.com 1.10,2013-06-18 22:19:00,
2013-06-18 17:34:00,85.6,67.0,29.92,ENE,59,6.0,6.0,54,0.00,,,0.00,weatherlink.com 1.10,2013-06-18 22:34:00,
2013-06-18 17:49:00,86.2,68.0,29.92,ENE,63,1.0,5.0,55,0.00,,,0.00,weatherlink.com 1.10,2013-06-18 22:49:00,
2013-06-18 18:04:00,86.7,68.0,29.91,North,11,1.0,5.0,54,0.00,,,0.00,weatherlink.com 1.10,2013-06-18 23:04:00,
2013-06-18 18:19:00,86.2,66.0,29.91,SE,134,2.0,6.0,52,0.00,,,0.00,weatherlink.com 1.10,2013-06-18 23:19:00,
2013-06-18 18:34:00,85.7,68.0,29.91,SSE,158,2.0,6.0,56,0.00,,,0.00,weatherlink.com 1.10,2013-06-18 23:34:00,
2013-06-18 18:49:00,85.9,68.0,29.91,ENE,75,3.0,5.0,55,0.00,,,0.00,weatherlink.com 1.10,2013-06-18 23:49:00,
2013-06-18 19:04:00,85.7,68.0,29.91,East,101,4.0,6.0,55,0.00,,,0.00,weatherlink.com 1.10,2013-06-19 00:04:00,
2013-06-18 19:19:00,85.5,68.0,29.91,SSE,151,0.0,3.0,57,0.00,,,0.00,weatherlink.com 1.10,2013-06-19 00:19:00,
2013-06-18 19:34:00,85.2,70.0,29.92,SSE,152,3.0,5.0,60,0.00,,,0.00,weatherlink.com 1.10,2013-06-19 00:34:00,
2013-06-18 19:49:00,82.8,70.0,29.91,SSE,148,2.0,4.0,65,0.00,,,0.00,weatherlink.com 1.10,2013-06-19 00:49:00,
2013-06-18 20:04:00,80.6,70.0,29.92,SE,132,0.0,3.0,69,0.00,,,0.00,weatherlink.com 1.10,2013-06-19 01:04:00,
2013-06-18 20:19:00,79.4,70.0,29.92,SSE,161,0.0,1.0,72,0.00,,,0.00,weatherlink.com 1.10,2013-06-19 01:19:00,
2013-06-18 20:34:00,77.9,70.0,29.92,SSE,160,0.0,0.0,77,0.00,,,0.00,weatherlink.com 1.10,2013-06-19 01:34:00,
2013-06-18 20:49:00,76.3,69.0,29.93,SSE,159,0.0,1.0,79,0.00,,,0.00,weatherlink.com 1.10,2013-06-19 01:49:00,
2013-06-18 21:04:00,75.3,70.0,29.93,SE,141,0.0,1.0,82,0.00,,,0.00,weatherlink.com 1.10,2013-06-19 02:04:00,
2013-06-18 21:19:00,74.6,69.0,29.93,SSE,148,0.0,0.0,83,0.00,,,0.00,weatherlink.com 1.10,2013-06-19 02:19:00,
2013-06-18 21:34:00,73.2,69.0,29.93,SSE,148,0.0,0.0,86,0.00,,,0.00,weatherlink.com 1.10,2013-06-19 02:34:00,
2013-06-18 21:49:00,72.2,69.0,29.94,SSE,148,0.0,0.0,88,0.00,,,0.00,weatherlink.com 1.10,2013-06-19 02:49:00,
2013-06-18 22:04:00,71.4,68.0,29.94,SSE,148,0.0,0.0,89,0.00,,,0.00,weatherlink.com 1.10,2013-06-19 03:04:00,
2013-06-18 22:19:00,70.9,68.0,29.95,SSE,148,0.0,0.0,90,0.00,,,0.00,weatherlink.com 1.10,2013-06-19 03:19:00,
2013-06-18 22:34:00,70.5,68.0,29.95,SSE,148,0.0,0.0,92,0.00,,,0.00,weatherlink.com 1.10,2013-06-19 03:34:00,
2013-06-18 22:49:00,70.2,68.0,29.96,SSE,148,0.0,0.0,93,0.00,,,0.00,weatherlink.com 1.10,2013-06-19 03:49:00,
2013-06-18 23:04:00,70.0,68.0,29.96,SSE,148,0.0,0.0,93,0.00,,,0.00,weatherlink.com 1.10,2013-06-19 04:04:00,
2013-06-18 23:19:00,69.4,67.0,29.97,SSE,148,0.0,0.0,93,0.00,,,0.00,weatherlink.com 1.10,2013-06-19 04:19:00,
2013-06-18 23:34:00,69.2,68.0,29.97,SSE,148,0.0,0.0,94,0.00,,,0.00,weatherlink.com 1.10,2013-06-19 04:34:00,
2013-06-18 23:49:00,68.8,67.0,29.97,SSE,148,0.0,0.0,94,0.00,,,0.00,weatherlink.com 1.10,2013-06-19 04:49:00,